Time;durP1;ratioP1;P1;durP2;ratioP2;P2;SDS_P1;SDS_P2;PMS_P1;PMS_P2;Temp;Humidity;BMP_temperature;BMP_pressure;BME280_temperature;BME280_humidity;BME280_pressure;Samples;Min_cycle;Max_cycle;Signal;HPM_P1;HPM_P2
2023/04/28 00:00:21;;;;;;;8.97;8.07;;;13.10;90.50;;;;;;5005007;28;20610;-62
2023/04/28 00:02:47;;;;;;;11.40;10.07;;;13.10;90.50;;;;;;5038185;28;20259;-62
2023/04/28 00:05:15;;;;;;;9.47;8.40;;;13.00;90.50;;;;;;5011777;28;20216;-62
2023/04/28 00:07:42;;;;;;;11.57;10.13;;;13.00;90.60;;;;;;5005536;28;20594;-63
2023/04/28 00:10:09;;;;;;;11.33;10.00;;;13.00;90.70;;;;;;5005210;28;20290;-62
2023/04/28 00:12:36;;;;;;;12.93;10.23;;;13.00;90.90;;;;;;5009045;28;20206;-62
2023/04/28 00:15:04;;;;;;;12.87;9.77;;;13.00;90.90;;;;;;5002854;28;20708;-62
2023/04/28 00:17:31;;;;;;;12.20;11.00;;;13.00;91.00;;;;;;5011331;28;20314;-62
2023/04/28 00:19:58;;;;;;;12.00;10.67;;;12.90;91.10;;;;;;5008280;28;20241;-62
2023/04/28 00:22:25;;;;;;;10.47;9.00;;;12.90;91.30;;;;;;5006181;28;20661;-62
2023/04/28 00:24:52;;;;;;;9.90;8.90;;;12.90;91.50;;;;;;5005380;28;20539;-62
2023/04/28 00:27:19;;;;;;;9.90;8.87;;;12.90;91.40;;;;;;5000388;28;20226;-62
2023/04/28 00:29:46;;;;;;;9.23;7.67;;;12.90;91.30;;;;;;5006372;28;20203;-62
2023/04/28 00:32:13;;;;;;;10.23;8.17;;;12.80;91.10;;;;;;5009433;28;20206;-62
2023/04/28 00:34:40;;;;;;;11.37;9.63;;;12.80;90.90;;;;;;5013455;28;20257;-62
2023/04/28 00:37:07;;;;;;;12.23;10.03;;;12.80;90.70;;;;;;5040294;28;20242;-62
2023/04/28 00:39:34;;;;;;;13.57;9.63;;;12.80;90.70;;;;;;5011592;28;20595;-62
2023/04/28 00:42:03;;;;;;;15.30;9.70;;;12.70;90.80;;;;;;5010056;28;20258;-62
2023/04/28 00:44:29;;;;;;;22.07;12.10;;;12.70;90.90;;;;;;5005853;28;20189;-62
2023/04/28 00:46:58;;;;;;;17.17;11.70;;;12.70;91.10;;;;;;5011809;28;20236;-62
2023/04/28 00:49:25;;;;;;;14.60;10.97;;;12.60;91.00;;;;;;5007731;28;20215;-62
2023/04/28 00:51:52;;;;;;;12.47;10.70;;;12.60;91.00;;;;;;5027582;28;20636;-62
2023/04/28 00:54:19;;;;;;;13.57;11.00;;;12.60;91.20;;;;;;5007289;28;20218;-62
2023/04/28 00:56:47;;;;;;;12.47;10.50;;;12.50;91.40;;;;;;5011347;28;20700;-62
2023/04/28 00:59:14;;;;;;;9.43;8.27;;;12.50;91.50;;;;;;5041138;28;20373;-63
2023/04/28 01:01:42;;;;;;;9.47;8.47;;;12.50;91.50;;;;;;5005662;28;20208;-62
2023/04/28 01:04:09;;;;;;;10.80;9.40;;;12.50;91.50;;;;;;5006059;28;20198;-62
2023/04/28 01:06:41;;;;;;;9.83;8.37;;;12.40;91.40;;;;;;5005590;28;20212;-62
2023/04/28 01:09:08;;;;;;;10.43;9.33;;;12.40;91.40;;;;;;5003266;28;20202;-62
2023/04/28 01:11:36;;;;;;;9.47;7.87;;;12.40;91.30;;;;;;5011068;28;20227;-63
2023/04/28 01:14:09;;;;;;;9.50;8.60;;;12.30;91.40;;;;;;5030243;28;20204;-62
2023/04/28 01:16:39;;;;;;;8.57;7.20;;;12.30;91.20;;;;;;5039201;28;20291;-62
2023/04/28 01:19:12;;;;;;;11.47;9.37;;;12.30;91.00;;;;;;5001742;28;20192;-62
2023/04/28 01:21:39;;;;;;;10.47;8.47;;;12.20;90.90;;;;;;5014007;28;21060;-62
2023/04/28 01:24:16;;;;;;;11.33;10.03;;;12.20;90.90;;;;;;5014062;28;20649;-62
2023/04/28 01:26:44;;;;;;;7.57;6.87;;;12.10;90.90;;;;;;5036962;28;20298;-62
2023/04/28 01:29:11;;;;;;;5.77;4.93;;;12.00;91.20;;;;;;5002649;28;20295;-62
2023/04/28 01:31:38;;;;;;;5.67;5.17;;;12.00;91.00;;;;;;5007263;28;20208;-62
2023/04/28 01:34:06;;;;;;;9.20;6.80;;;11.90;91.00;;;;;;5006351;28;20214;-62
2023/04/28 01:36:34;;;;;;;7.70;6.90;;;11.90;91.10;;;;;;5011451;28;20210;-62
2023/04/28 01:39:04;;;;;;;7.53;6.73;;;11.90;91.20;;;;;;5011797;28;20199;-63
2023/04/28 01:41:35;;;;;;;9.20;8.20;;;11.80;91.30;;;;;;5003524;28;20277;-63
2023/04/28 01:44:04;;;;;;;19.20;8.27;;;11.80;91.40;;;;;;5037613;28;20240;-62
2023/04/28 01:46:32;;;;;;;15.50;12.13;;;11.80;91.50;;;;;;5008049;28;20195;-63
2023/04/28 01:49:00;;;;;;;13.07;10.40;;;11.80;91.50;;;;;;5008564;28;20727;-63
2023/04/28 01:51:27;;;;;;;13.33;11.50;;;11.80;91.70;;;;;;5001903;28;20706;-63
2023/04/28 01:53:54;;;;;;;18.23;13.93;;;11.70;91.70;;;;;;5001744;28;20203;-62
2023/04/28 01:56:21;;;;;;;22.23;14.60;;;11.70;91.90;;;;;;5006282;28;20250;-62
2023/04/28 01:58:49;;;;;;;17.33;13.17;;;11.70;92.20;;;;;;5036804;28;20225;-63
2023/04/28 02:01:17;;;;;;;15.03;13.23;;;11.70;92.70;;;;;;5013918;28;20194;-62
2023/04/28 02:03:43;;;;;;;14.47;12.53;;;11.70;92.60;;;;;;5035747;28;20314;-62
2023/04/28 02:06:11;;;;;;;17.07;12.53;;;11.70;92.80;;;;;;5003547;28;20295;-62
2023/04/28 02:08:38;;;;;;;16.93;11.73;;;11.70;93.00;;;;;;5004382;28;20293;-63
2023/04/28 02:11:05;;;;;;;15.80;12.90;;;11.70;93.10;;;;;;5008345;28;20205;-64
2023/04/28 02:13:32;;;;;;;19.83;12.57;;;11.80;93.30;;;;;;4999496;28;20214;-62
2023/04/28 02:16:01;;;;;;;17.07;11.57;;;11.80;93.40;;;;;;5008235;28;20211;-62
2023/04/28 02:18:28;;;;;;;15.53;12.03;;;11.90;93.40;;;;;;5031533;28;20228;-63
2023/04/28 02:21:10;;;;;;;13.90;12.40;;;11.90;93.30;;;;;;5012023;28;20197;-62
2023/04/28 02:23:38;;;;;;;12.50;11.20;;;11.90;93.20;;;;;;5002538;28;20215;-62
2023/04/28 02:26:05;;;;;;;15.30;11.23;;;11.90;93.20;;;;;;5009856;28;20286;-62
2023/04/28 02:28:32;;;;;;;14.00;11.57;;;11.90;93.30;;;;;;5009345;28;20521;-62
2023/04/28 02:31:04;;;;;;;14.67;12.40;;;11.90;93.30;;;;;;5005304;28;20701;-65
2023/04/28 02:33:32;;;;;;;13.97;11.80;;;11.90;93.40;;;;;;5008956;28;20652;-62
2023/04/28 02:36:00;;;;;;;13.50;11.50;;;11.90;93.50;;;;;;5002053;28;20277;-62
2023/04/28 02:38:28;;;;;;;15.90;11.70;;;11.90;93.60;;;;;;5009991;28;20233;-62
2023/04/28 02:40:59;;;;;;;13.20;10.67;;;11.90;93.50;;;;;;5006721;28;20223;-63
2023/04/28 02:43:27;;;;;;;16.50;10.93;;;11.90;93.40;;;;;;5003511;28;20289;-63
2023/04/28 02:45:55;;;;;;;12.63;10.87;;;11.90;93.20;;;;;;5001224;28;20613;-63
2023/04/28 02:48:25;;;;;;;12.87;10.10;;;11.80;93.00;;;;;;5018372;28;20246;-63
2023/04/28 02:50:52;;;;;;;11.87;10.50;;;11.80;92.90;;;;;;5005839;28;20203;-63
2023/04/28 02:53:20;;;;;;;12.83;10.93;;;11.80;92.80;;;;;;5035834;28;20638;-62
2023/04/28 02:55:48;;;;;;;15.50;11.07;;;11.70;92.70;;;;;;5002326;28;20210;-63
2023/04/28 02:58:16;;;;;;;12.10;9.97;;;11.70;92.70;;;;;;5019423;28;20587;-63
2023/04/28 03:00:45;;;;;;;12.17;10.87;;;11.60;92.70;;;;;;5022027;28;20213;-63
2023/04/28 03:03:12;;;;;;;12.03;9.90;;;11.60;92.70;;;;;;5009650;28;20222;-63
2023/04/28 03:05:40;;;;;;;13.17;10.77;;;11.60;92.70;;;;;;5010591;28;20227;-63
2023/04/28 03:08:07;;;;;;;12.60;10.87;;;11.50;92.80;;;;;;5004794;28;20217;-63
2023/04/28 03:10:34;;;;;;;13.43;10.67;;;11.60;92.90;;;;;;5006850;28;20710;-63
2023/04/28 03:13:02;;;;;;;13.97;10.90;;;11.60;92.90;;;;;;5003504;28;20233;-63
2023/04/28 03:15:29;;;;;;;13.27;11.37;;;11.60;93.00;;;;;;5037296;28;20643;-63
2023/04/28 03:17:57;;;;;;;12.13;10.43;;;11.70;93.10;;;;;;4999467;28;20663;-63
2023/04/28 03:20:24;;;;;;;12.87;10.73;;;11.70;93.10;;;;;;5005402;28;20310;-63
2023/04/28 03:22:51;;;;;;;12.23;11.03;;;11.80;93.20;;;;;;4999875;28;20222;-63
2023/04/28 03:25:18;;;;;;;12.90;10.77;;;11.80;93.30;;;;;;5009159;28;20642;-62
2023/04/28 03:27:48;;;;;;;14.90;9.93;;;11.90;93.30;;;;;;5006849;28;20541;-63
2023/04/28 03:30:15;;;;;;;13.67;10.80;;;11.90;93.30;;;;;;5002644;28;20207;-63
2023/04/28 03:32:42;;;;;;;17.10;11.80;;;12.00;93.40;;;;;;5007975;28;20215;-63
2023/04/28 03:35:09;;;;;;;13.40;11.30;;;12.00;93.30;;;;;;5019726;28;20803;-63
2023/04/28 03:37:37;;;;;;;15.67;12.47;;;12.10;93.30;;;;;;5007948;28;20311;-63
2023/04/28 03:40:05;;;;;;;13.77;12.23;;;12.10;93.30;;;;;;5009965;28;20215;-63
2023/04/28 03:42:49;;;;;;;13.93;11.20;;;12.20;93.30;;;;;;5009067;28;20633;-63
2023/04/28 03:45:24;;;;;;;15.70;12.20;;;12.20;93.40;;;;;;5002995;28;20204;-63
2023/04/28 03:47:51;;;;;;;11.90;10.57;;;12.30;93.50;;;;;;5010788;28;20250;-63
2023/04/28 03:50:18;;;;;;;13.77;11.50;;;12.30;93.60;;;;;;5003885;28;20211;-63
2023/04/28 03:52:45;;;;;;;16.97;11.53;;;12.40;93.70;;;;;;5005244;28;20269;-64
2023/04/28 03:55:12;;;;;;;12.73;11.10;;;12.50;93.70;;;;;;5008827;28;20215;-63
2023/04/28 03:57:39;;;;;;;13.50;11.83;;;12.50;93.70;;;;;;5019051;28;20238;-63
2023/04/28 04:00:07;;;;;;;16.57;12.23;;;12.60;93.70;;;;;;5003023;28;20216;-63
2023/04/28 04:02:41;;;;;;;14.37;12.47;;;12.60;93.70;;;;;;5002785;28;20286;-63
2023/04/28 04:05:09;;;;;;;14.17;11.70;;;12.60;93.70;;;;;;5009128;28;20206;-63
2023/04/28 04:07:36;;;;;;;13.20;11.70;;;12.70;93.70;;;;;;5011865;28;20212;-63
2023/04/28 04:10:04;;;;;;;12.97;10.90;;;12.70;93.80;;;;;;5013855;28;20227;-63
2023/04/28 04:12:33;;;;;;;12.97;11.20;;;12.80;93.90;;;;;;5007650;28;20203;-63
2023/04/28 04:15:00;;;;;;;12.87;11.23;;;12.80;93.90;;;;;;5013531;28;20548;-63
2023/04/28 04:17:27;;;;;;;15.33;12.33;;;12.80;93.90;;;;;;5019703;28;20733;-63
2023/04/28 04:19:55;;;;;;;13.13;11.23;;;12.90;93.90;;;;;;5008282;28;20298;-63
2023/04/28 04:22:22;;;;;;;14.10;11.83;;;12.90;93.90;;;;;;5012958;28;20250;-63
2023/04/28 04:24:49;;;;;;;13.27;11.87;;;12.90;94.00;;;;;;5007189;28;20272;-63
2023/04/28 04:27:16;;;;;;;13.27;10.17;;;12.90;94.00;;;;;;5015587;28;20306;-63
2023/04/28 04:29:44;;;;;;;14.27;11.13;;;13.00;94.10;;;;;;5011774;28;20238;-63
2023/04/28 04:32:12;;;;;;;14.27;11.10;;;13.10;94.10;;;;;;4985789;28;20201;-63
2023/04/28 04:34:41;;;;;;;13.37;10.87;;;13.10;94.10;;;;;;5009220;28;20303;-63
2023/04/28 04:37:09;;;;;;;12.90;10.37;;;13.10;94.00;;;;;;5004979;28;20625;-63
2023/04/28 04:39:41;;;;;;;13.03;11.23;;;13.20;94.00;;;;;;5037345;28;20207;-63
2023/04/28 04:42:08;;;;;;;16.07;11.90;;;13.20;94.00;;;;;;5032505;28;20208;-63
2023/04/28 04:45:01;;;;;;;16.83;10.97;;;13.20;94.00;;;;;;5016743;28;20205;-63
2023/04/28 04:47:30;;;;;;;16.63;12.10;;;13.30;93.90;;;;;;5042503;28;20236;-63
2023/04/28 04:49:57;;;;;;;21.40;13.13;;;13.20;93.90;;;;;;5013939;28;20215;-63
2023/04/28 04:52:24;;;;;;;22.33;13.27;;;13.30;93.90;;;;;;5007198;28;20192;-64
2023/04/28 04:54:52;;;;;;;20.30;13.07;;;13.30;94.00;;;;;;5006896;28;20218;-63
2023/04/28 04:57:19;;;;;;;22.17;13.03;;;13.30;94.00;;;;;;5039919;28;20296;-63
2023/04/28 05:00:04;;;;;;;26.30;13.70;;;13.30;94.00;;;;;;5021598;28;20929;-63
2023/04/28 05:02:31;;;;;;;26.30;14.63;;;13.30;94.10;;;;;;5032513;28;20299;-63
2023/04/28 05:05:00;;;;;;;26.57;14.97;;;13.30;94.10;;;;;;5010168;28;20218;-63
2023/04/28 05:07:47;;;;;;;25.23;14.47;;;13.40;94.20;;;;;;5011140;28;20671;-63
2023/04/28 05:10:15;;;;;;;22.03;14.80;;;13.40;94.20;;;;;;5004238;28;20604;-62
2023/04/28 05:12:43;;;;;;;31.63;14.57;;;13.40;94.20;;;;;;5035614;28;20291;-63
2023/04/28 05:15:15;;;;;;;26.17;14.80;;;13.50;94.20;;;;;;5022802;28;20211;-63
2023/04/28 05:17:52;;;;;;;31.70;16.37;;;13.50;94.40;;;;;;5009656;28;20219;-63
2023/04/28 05:20:20;;;;;;;51.37;16.53;;;13.40;94.30;;;;;;5006852;28;20208;-63
2023/04/28 05:22:47;;;;;;;41.70;17.20;;;13.40;94.50;;;;;;5011280;28;20200;-63
2023/04/28 05:25:15;;;;;;;36.67;16.87;;;13.40;94.50;;;;;;5034812;28;20638;-63
2023/04/28 05:27:42;;;;;;;38.90;18.00;;;13.40;94.60;;;;;;5035848;28;20197;-63
2023/04/28 05:30:09;;;;;;;56.57;20.97;;;13.40;94.70;;;;;;5037255;28;20295;-63
2023/04/28 05:32:37;;;;;;;51.57;18.37;;;13.40;94.80;;;;;;5007728;28;20289;-63
2023/04/28 05:35:05;;;;;;;45.83;18.90;;;13.50;94.90;;;;;;5035299;28;20328;-63
2023/04/28 05:37:33;;;;;;;64.50;21.10;;;13.50;95.00;;;;;;5004468;28;20195;-63
2023/04/28 05:40:00;;;;;;;45.50;19.40;;;13.60;95.10;;;;;;5039589;28;20547;-63
2023/04/28 05:42:27;;;;;;;52.77;21.03;;;13.60;95.10;;;;;;5005749;28;20679;-63
2023/04/28 05:44:54;;;;;;;66.00;23.30;;;13.70;95.20;;;;;;5017960;28;20205;-63
2023/04/28 05:47:21;;;;;;;57.33;22.17;;;13.70;95.20;;;;;;5018446;28;20270;-63
2023/04/28 05:49:49;;;;;;;51.87;21.50;;;13.80;95.30;;;;;;5036418;28;20204;-63
2023/04/28 05:52:16;;;;;;;55.00;22.53;;;13.80;95.30;;;;;;5009306;28;20208;-63
2023/04/28 05:54:43;;;;;;;56.03;24.17;;;13.90;95.40;;;;;;5017697;28;20215;-63
2023/04/28 05:57:10;;;;;;;55.13;23.27;;;14.00;95.40;;;;;;5006627;28;20242;-64
2023/04/28 05:59:38;;;;;;;53.80;23.00;;;14.00;95.40;;;;;;5012222;28;20235;-63
2023/04/28 06:02:05;;;;;;;61.40;22.53;;;14.10;95.40;;;;;;5006309;28;20200;-63
2023/04/28 06:04:32;;;;;;;52.50;24.17;;;14.10;95.40;;;;;;5033539;28;20277;-63
2023/04/28 06:07:00;;;;;;;52.23;24.60;;;14.20;95.40;;;;;;5004737;28;20197;-63
2023/04/28 06:09:27;;;;;;;54.57;24.27;;;14.30;95.30;;;;;;5011407;28;20651;-63
2023/04/28 06:11:54;;;;;;;59.03;24.20;;;14.30;95.30;;;;;;5010781;28;20197;-63
2023/04/28 06:14:22;;;;;;;53.90;25.70;;;14.40;95.30;;;;;;5004573;28;20297;-63
2023/04/28 06:16:50;;;;;;;62.83;26.03;;;14.50;95.30;;;;;;5011092;28;20645;-64
2023/04/28 06:19:20;;;;;;;65.97;27.00;;;14.60;95.60;;;;;;5017494;28;20322;-63
2023/04/28 06:21:49;;;;;;;57.70;26.77;;;14.60;95.20;;;;;;5035106;28;20196;-63
2023/04/28 06:24:16;;;;;;;62.47;27.43;;;14.70;95.20;;;;;;5019126;28;20252;-63
2023/04/28 06:26:45;;;;;;;61.17;24.57;;;14.80;95.10;;;;;;5006124;28;20192;-62
2023/04/28 06:29:12;;;;;;;52.27;24.60;;;14.90;95.20;;;;;;5035574;28;20234;-63
2023/04/28 06:31:39;;;;;;;58.80;25.13;;;14.90;95.10;;;;;;5003571;28;20242;-60
2023/04/28 06:34:07;;;;;;;62.87;25.57;;;14.90;95.10;;;;;;5010078;28;20208;-63
2023/04/28 06:36:35;;;;;;;60.07;25.17;;;15.00;95.10;;;;;;5039798;28;20215;-62
2023/04/28 06:39:03;;;;;;;57.53;24.40;;;15.00;95.00;;;;;;5010608;28;20318;-69
2023/04/28 06:41:32;;;;;;;48.40;23.77;;;15.10;95.00;;;;;;5010527;28;20258;-65
2023/04/28 06:44:01;;;;;;;53.27;24.90;;;15.10;95.00;;;;;;5033585;28;20204;-65
2023/04/28 06:46:30;;;;;;;47.17;23.53;;;15.20;95.00;;;;;;5005170;28;20292;-62
2023/04/28 06:48:57;;;;;;;49.33;26.00;;;15.20;95.00;;;;;;5001952;28;20556;-62
2023/04/28 06:51:25;;;;;;;50.10;25.40;;;15.20;94.90;;;;;;5035491;28;20214;-64
2023/04/28 06:53:52;;;;;;;57.57;24.90;;;15.30;95.00;;;;;;5014912;28;20208;-63
2023/04/28 06:56:20;;;;;;;51.40;26.13;;;15.30;94.90;;;;;;5003385;28;20292;-63
2023/04/28 06:58:47;;;;;;;45.67;25.17;;;15.40;94.90;;;;;;5003996;28;20216;-63
2023/04/28 07:01:14;;;;;;;40.53;24.27;;;15.40;94.90;;;;;;5000879;28;20220;-63
2023/04/28 07:03:41;;;;;;;40.03;25.07;;;15.50;94.80;;;;;;4998598;28;20263;-63
2023/04/28 07:06:08;;;;;;;34.47;22.57;;;15.50;94.70;;;;;;5007570;28;20638;-63
2023/04/28 07:08:35;;;;;;;39.73;23.57;;;15.50;94.60;;;;;;5000861;28;20302;-63
2023/04/28 07:11:05;;;;;;;46.00;26.53;;;15.60;94.60;;;;;;5008197;28;20206;-63
2023/04/28 07:13:32;;;;;;;37.83;23.97;;;15.60;94.60;;;;;;5003179;28;20254;-63
2023/04/28 07:16:00;;;;;;;37.73;23.77;;;15.70;94.60;;;;;;5003694;28;20290;-63
2023/04/28 07:18:27;;;;;;;40.17;26.00;;;15.70;94.60;;;;;;5006754;28;20248;-63
2023/04/28 07:20:54;;;;;;;38.83;25.43;;;15.80;94.50;;;;;;5004138;28;20196;-63
2023/04/28 07:23:21;;;;;;;41.83;26.87;;;15.90;94.20;;;;;;5003775;28;20210;-63
2023/04/28 07:25:48;;;;;;;35.00;24.93;;;15.90;93.40;;;;;;5031688;28;20251;-64
2023/04/28 07:28:15;;;;;;;37.77;26.30;;;15.80;93.20;;;;;;5015080;28;20901;-63
2023/04/28 07:30:42;;;;;;;37.13;26.00;;;15.70;93.20;;;;;;5007310;28;20203;-63
2023/04/28 07:33:09;;;;;;;39.30;27.73;;;15.60;93.50;;;;;;4998818;28;20227;-63
2023/04/28 07:35:36;;;;;;;41.13;26.90;;;15.70;93.80;;;;;;5000849;28;20622;-63
2023/04/28 07:38:03;;;;;;;35.47;26.60;;;15.70;93.80;;;;;;5006413;28;20623;-63
2023/04/28 07:40:31;;;;;;;38.37;27.57;;;15.70;93.90;;;;;;5011015;28;20200;-63
2023/04/28 07:42:58;;;;;;;41.73;28.03;;;15.80;94.00;;;;;;5007984;28;20215;-64
2023/04/28 07:45:25;;;;;;;38.77;27.27;;;16.00;93.90;;;;;;5005248;28;20200;-61
2023/04/28 07:47:52;;;;;;;37.70;27.43;;;16.20;93.90;;;;;;5009539;28;20240;-64
2023/04/28 07:50:19;;;;;;;33.23;25.77;;;16.40;93.60;;;;;;5007055;28;20212;-61
2023/04/28 07:52:46;;;;;;;28.43;23.50;;;16.60;93.40;;;;;;5004489;28;20203;-62
2023/04/28 07:55:13;;;;;;;31.27;25.10;;;16.80;92.30;;;;;;5008220;28;20252;-62
2023/04/28 07:57:41;;;;;;;32.83;25.70;;;17.00;92.30;;;;;;5008248;28;20208;-62
2023/04/28 08:00:08;;;;;;;30.27;23.27;;;17.20;92.30;;;;;;5006048;28;20273;-63
2023/04/28 08:02:38;;;;;;;27.80;23.70;;;17.40;92.20;;;;;;5005595;28;20581;-61
2023/04/28 08:05:07;;;;;;;28.73;24.13;;;17.70;91.50;;;;;;5005835;28;20197;-61
2023/04/28 08:07:36;;;;;;;30.17;23.97;;;17.80;90.50;;;;;;5003257;28;20209;-62
2023/04/28 08:10:03;;;;;;;30.53;24.60;;;18.00;90.10;;;;;;5005014;28;20268;-62
2023/04/28 08:12:31;;;;;;;28.73;23.60;;;18.10;90.30;;;;;;5002726;28;20220;-60
2023/04/28 08:14:58;;;;;;;31.30;23.30;;;18.30;90.20;;;;;;5007997;28;20199;-61
2023/04/28 08:17:25;;;;;;;37.53;22.07;;;18.50;89.70;;;;;;5005822;28;20654;-63
2023/04/28 08:19:52;;;;;;;27.47;21.67;;;18.60;89.00;;;;;;5041546;28;20604;-62
2023/04/28 08:22:19;;;;;;;21.73;19.07;;;18.80;88.50;;;;;;5006048;28;20203;-63
2023/04/28 08:24:46;;;;;;;24.13;21.07;;;19.10;87.60;;;;;;5002120;28;20199;-62
2023/04/28 08:27:13;;;;;;;21.87;19.37;;;19.30;86.30;;;;;;5003708;28;20212;-64
2023/04/28 08:29:41;;;;;;;23.20;20.57;;;19.40;85.00;;;;;;5008357;28;20217;-64
2023/04/28 08:32:08;;;;;;;22.57;19.20;;;19.50;84.10;;;;;;5037087;28;20196;-64
2023/04/28 08:34:35;;;;;;;22.40;19.70;;;19.70;84.20;;;;;;5007071;28;20200;-63
2023/04/28 08:37:02;;;;;;;22.30;18.67;;;19.90;84.40;;;;;;5013173;28;20198;-64
2023/04/28 08:39:30;;;;;;;21.07;18.87;;;20.10;83.70;;;;;;5007231;28;20536;-62
2023/04/28 08:41:57;;;;;;;20.47;18.30;;;20.20;83.20;;;;;;5002813;28;20294;-66
2023/04/28 08:44:24;;;;;;;19.97;17.93;;;20.40;82.50;;;;;;5003211;28;20200;-61
2023/04/28 08:46:55;;;;;;;20.27;17.77;;;20.40;81.80;;;;;;5010678;28;20623;-61
2023/04/28 08:49:33;;;;;;;19.27;16.73;;;20.50;81.10;;;;;;5011090;28;20253;-61
2023/04/28 08:52:00;;;;;;;21.27;16.90;;;20.50;79.10;;;;;;5005483;28;20201;-61
2023/04/28 08:54:30;;;;;;;19.43;16.77;;;20.50;80.10;;;;;;5008644;28;20286;-60
2023/04/28 08:56:58;;;;;;;20.87;17.80;;;20.50;80.20;;;;;;5005828;28;20215;-60
2023/04/28 08:59:25;;;;;;;18.00;14.93;;;20.70;79.80;;;;;;5007683;28;20213;-61
2023/04/28 09:01:52;;;;;;;17.37;15.33;;;20.80;78.50;;;;;;5005649;28;20205;-63
2023/04/28 09:04:19;;;;;;;19.67;17.37;;;21.00;78.90;;;;;;5002213;28;20200;-59
2023/04/28 09:06:47;;;;;;;17.43;15.63;;;21.10;78.60;;;;;;5001338;28;20208;-62
2023/04/28 09:09:22;;;;;;;16.97;11.27;;;21.20;78.70;;;;;;5003578;28;20208;-62
2023/04/28 09:11:54;;;;;;;12.23;11.03;;;21.30;77.00;;;;;;5003082;28;20629;-62
2023/04/28 09:14:22;;;;;;;12.27;10.73;;;21.40;76.20;;;;;;4999447;28;20200;-61
2023/04/28 09:16:50;;;;;;;15.83;11.57;;;21.50;75.70;;;;;;5007089;28;20647;-61
2023/04/28 09:19:18;;;;;;;11.83;10.00;;;21.60;76.00;;;;;;4999700;28;20899;-64
2023/04/28 09:21:50;;;;;;;11.53;10.00;;;21.70;73.30;;;;;;5005711;28;20195;-61
2023/04/28 09:24:35;;;;;;;11.87;10.13;;;21.80;73.60;;;;;;5009670;28;20192;-62
2023/04/28 09:27:04;;;;;;;9.47;8.50;;;21.80;72.20;;;;;;5002970;28;20215;-63
2023/04/28 09:29:31;;;;;;;9.77;8.77;;;21.90;72.80;;;;;;5006179;28;20203;-60
2023/04/28 09:32:18;;;;;;;9.37;8.43;;;22.00;72.80;;;;;;5008180;28;20228;-60
2023/04/28 09:34:51;;;;;;;11.10;8.67;;;22.10;72.40;;;;;;5003900;28;20219;-63
2023/04/28 09:37:23;;;;;;;9.73;8.83;;;22.30;72.50;;;;;;5008409;28;20215;-64
2023/04/28 09:39:52;;;;;;;9.60;8.60;;;22.50;70.10;;;;;;5005514;28;20708;-63
2023/04/28 09:42:40;;;;;;;9.30;8.30;;;22.50;68.90;;;;;;5013553;28;20220;-60
2023/04/28 09:45:11;;;;;;;8.90;7.97;;;22.60;69.60;;;;;;5004679;28;20590;-61
2023/04/28 09:47:45;;;;;;;11.10;9.60;;;22.70;70.00;;;;;;5000696;28;20235;-62
2023/04/28 09:50:15;;;;;;;11.23;10.03;;;22.90;69.90;;;;;;5001495;28;20229;-61
2023/04/28 09:52:47;;;;;;;12.53;9.37;;;23.00;67.80;;;;;;5003694;28;20510;-62
2023/04/28 09:55:15;;;;;;;11.07;9.97;;;23.00;68.20;;;;;;5004587;28;20278;-62
2023/04/28 09:57:45;;;;;;;14.47;10.00;;;23.10;68.80;;;;;;5007547;28;20235;-63
2023/04/28 10:00:17;;;;;;;12.33;11.03;;;23.20;66.90;;;;;;5008695;28;20215;-63
2023/04/28 10:02:44;;;;;;;10.83;9.73;;;23.20;66.50;;;;;;5002595;28;20237;-63
2023/04/28 10:05:15;;;;;;;10.07;9.13;;;23.10;68.10;;;;;;5005612;28;20211;-62
2023/04/28 10:07:43;;;;;;;10.80;9.70;;;23.20;69.10;;;;;;4999131;28;20634;-63
2023/04/28 10:10:13;;;;;;;11.37;9.03;;;23.30;69.80;;;;;;5006055;28;20294;-63
2023/04/28 10:12:41;;;;;;;11.57;9.10;;;23.40;69.40;;;;;;5000274;28;20205;-63
2023/04/28 10:15:09;;;;;;;10.03;9.00;;;23.60;68.90;;;;;;5007766;28;20235;-63
2023/04/28 10:17:37;;;;;;;13.00;9.77;;;23.70;68.60;;;;;;5000984;28;20261;-61
2023/04/28 10:20:05;;;;;;;10.63;9.13;;;23.80;66.30;;;;;;5003380;28;20700;-60
2023/04/28 10:22:35;;;;;;;11.77;9.87;;;23.70;66.80;;;;;;5005389;28;20235;-62
2023/04/28 10:25:24;;;;;;;10.70;9.60;;;23.80;67.10;;;;;;4999816;28;20195;-61
2023/04/28 10:27:52;;;;;;;16.30;9.33;;;23.80;65.90;;;;;;5008176;28;20191;-61
2023/04/28 10:30:23;;;;;;;12.60;9.83;;;23.80;65.70;;;;;;5006156;28;20205;-61
2023/04/28 10:33:10;;;;;;;13.03;9.43;;;23.80;65.50;;;;;;5002407;28;20555;-62
2023/04/28 10:35:42;;;;;;;13.53;9.17;;;23.70;64.90;;;;;;5004860;28;20622;-62
2023/04/28 10:38:14;;;;;;;12.17;8.90;;;23.70;66.20;;;;;;5001990;28;20218;-63
2023/04/28 10:40:48;;;;;;;15.47;9.67;;;23.80;65.50;;;;;;5002303;28;20216;-60
2023/04/28 10:43:25;;;;;;;8.50;7.70;;;23.80;63.90;;;;;;5004372;28;20286;-61
2023/04/28 10:45:52;;;;;;;9.53;7.40;;;23.90;65.20;;;;;;5002772;28;20600;-63
2023/04/28 10:48:29;;;;;;;8.07;7.17;;;24.00;64.30;;;;;;5004303;28;20266;-63
2023/04/28 10:51:02;;;;;;;6.63;6.03;;;24.00;62.90;;;;;;4999001;28;20201;-61
2023/04/28 10:53:45;;;;;;;6.67;6.07;;;23.90;63.30;;;;;;5004977;28;20212;-62
2023/04/28 10:56:24;;;;;;;12.17;5.37;;;24.00;63.10;;;;;;5000936;28;20196;-62
2023/04/28 10:58:59;;;;;;;7.80;5.23;;;23.90;62.60;;;;;;5006011;28;20209;-62
2023/04/28 11:01:33;;;;;;;4.50;4.10;;;23.80;63.10;;;;;;5003789;28;20207;-62
2023/04/28 11:04:15;;;;;;;7.67;5.17;;;23.90;62.60;;;;;;5002050;28;20202;-63
2023/04/28 11:06:44;;;;;;;4.80;4.40;;;23.80;61.40;;;;;;5002309;28;20215;-62
2023/04/28 11:09:12;;;;;;;5.50;4.77;;;23.70;62.40;;;;;;5007209;28;20523;-62
2023/04/28 11:11:58;;;;;;;6.20;4.83;;;23.70;62.70;;;;;;5006578;28;20621;-62
2023/04/28 11:14:25;;;;;;;4.70;4.13;;;23.70;62.60;;;;;;5005579;28;20693;-62
2023/04/28 11:17:01;;;;;;;5.73;4.83;;;23.70;60.80;;;;;;5008976;28;20204;-62
2023/04/28 11:19:47;;;;;;;5.47;4.90;;;23.60;60.80;;;;;;5006893;28;20803;-63
2023/04/28 11:22:18;;;;;;;5.57;4.80;;;23.60;62.30;;;;;;5008052;28;20710;-61
2023/04/28 11:24:58;;;;;;;5.20;4.70;;;23.60;62.40;;;;;;5004627;28;20593;-62
2023/04/28 11:27:31;;;;;;;5.80;4.40;;;23.60;63.00;;;;;;5004175;28;20208;-63
2023/04/28 11:29:59;;;;;;;6.37;5.80;;;23.70;61.30;;;;;;5008637;28;20207;-62
2023/04/28 11:32:36;;;;;;;6.13;5.53;;;23.80;61.50;;;;;;5008674;28;20634;-62
2023/04/28 11:35:04;;;;;;;6.03;4.97;;;23.80;61.10;;;;;;5004217;28;20257;-61
2023/04/28 11:37:31;;;;;;;4.40;3.83;;;23.90;61.00;;;;;;5010003;28;20232;-61
2023/04/28 11:39:58;;;;;;;6.87;3.50;;;23.90;61.70;;;;;;5007486;28;20220;-61
2023/04/28 11:42:27;;;;;;;6.27;4.60;;;23.90;61.10;;;;;;5013700;28;20315;-61
2023/04/28 11:44:54;;;;;;;5.20;4.10;;;23.90;61.50;;;;;;5008351;28;20263;-61
2023/04/28 11:47:33;;;;;;;4.90;3.73;;;23.90;61.30;;;;;;5010961;28;20243;-61
2023/04/28 11:50:01;;;;;;;9.03;3.40;;;23.90;61.00;;;;;;5005234;28;20196;-61
2023/04/28 11:52:29;;;;;;;3.40;3.10;;;23.90;59.80;;;;;;5006702;28;20265;-61
2023/04/28 11:54:58;;;;;;;6.50;3.13;;;23.90;60.50;;;;;;5003262;28;20205;-61
2023/04/28 11:57:26;;;;;;;4.30;2.90;;;23.90;61.40;;;;;;5003178;28;20204;-61
2023/04/28 12:00:13;;;;;;;3.70;3.07;;;24.00;60.90;;;;;;5022865;28;20223;-61
2023/04/28 12:02:40;;;;;;;4.43;2.93;;;24.00;60.10;;;;;;5006206;28;20638;-61
2023/04/28 12:05:09;;;;;;;2.83;2.23;;;24.20;57.60;;;;;;4998541;28;20240;-61
2023/04/28 12:07:44;;;;;;;6.20;3.10;;;24.30;58.20;;;;;;5009408;28;20203;-61
2023/04/28 12:10:13;;;;;;;6.63;3.13;;;24.40;55.10;;;;;;5008892;28;20211;-61
2023/04/28 12:12:41;;;;;;;4.23;2.47;;;24.40;56.20;;;;;;5006301;28;20204;-61
2023/04/28 12:15:18;;;;;;;5.13;2.87;;;24.40;57.60;;;;;;5009998;28;20192;-61
2023/04/28 12:17:49;;;;;;;5.37;2.77;;;24.40;58.40;;;;;;5007780;28;20200;-61
2023/04/28 12:20:36;;;;;;;3.43;2.60;;;24.40;55.30;;;;;;5007427;28;20216;-61
2023/04/28 12:23:04;;;;;;;5.50;2.93;;;24.40;55.90;;;;;;5004355;28;20392;-61
2023/04/28 12:25:33;;;;;;;2.37;2.17;;;24.50;56.00;;;;;;5009083;28;20266;-61
2023/04/28 12:28:06;;;;;;;5.37;2.30;;;24.50;56.30;;;;;;5005843;28;20195;-60
2023/04/28 12:30:40;;;;;;;4.70;2.50;;;24.60;54.30;;;;;;5006898;28;20200;-61
2023/04/28 12:33:26;;;;;;;2.70;2.20;;;24.50;54.70;;;;;;5009961;28;20214;-61
2023/04/28 12:35:54;;;;;;;4.27;1.40;;;24.40;53.60;;;;;;5006782;28;20603;-61
2023/04/28 12:38:22;;;;;;;3.43;2.10;;;24.40;54.20;;;;;;5003337;28;20223;-61
2023/04/28 12:40:50;;;;;;;3.23;2.10;;;24.40;53.80;;;;;;5009075;28;20532;-61
2023/04/28 12:43:17;;;;;;;5.17;2.37;;;24.50;54.90;;;;;;5001680;28;20295;-61